Time;durP1;ratioP1;P1;durP2;ratioP2;P2;SDS_P1;SDS_P2;PMS_P1;PMS_P2;Temp;Humidity;BMP_temperature;BMP_pressure;BME280_temperature;BME280_humidity;BME280_pressure;Samples;Min_cycle;Max_cycle;Signal;HPM_P1;HPM_P2
2023/11/24 09:15:22;;;;;;;3.90;1.10;;;;;;;8.36;100.00;98053.44;5123365;27;20553;-82
2023/11/24 09:17:50;;;;;;;6.00;1.43;;;;;;;9.17;100.00;98046.94;5072379;28;38805;-82
2023/11/24 09:20:19;;;;;;;6.07;1.00;;;;;;;9.92;96.07;98045.09;5072532;28;40896;-83
2023/11/24 09:22:47;;;;;;;3.97;1.20;;;;;;;10.48;92.31;98050.69;5089314;28;43652;-84
2023/11/24 09:25:19;;;;;;;4.70;1.33;;;;;;;10.63;84.75;98077.81;5072063;28;41897;-83
2023/11/24 09:27:46;;;;;;;4.07;0.90;;;;;;;10.70;82.86;98084.34;5072154;28;39082;-81
2023/11/24 09:30:14;;;;;;;3.00;0.73;;;;;;;10.38;81.65;98078.81;5072046;28;43096;-82
2023/11/24 09:32:43;;;;;;;2.77;0.80;;;;;;;10.27;81.68;98092.81;5105898;28;43706;-82
2023/11/24 09:35:11;;;;;;;2.03;0.80;;;;;;;10.12;82.77;98061.31;5085866;28;41286;-81
2023/11/24 09:37:38;;;;;;;2.20;0.90;;;;;;;10.26;83.10;98075.22;5106032;28;38997;-82
2023/11/24 09:40:12;;;;;;;1.77;0.60;;;;;;;10.22;82.04;98075.59;5071833;28;40666;-82
2023/11/24 09:42:44;;;;;;;2.43;0.90;;;;;;;10.18;82.38;98064.38;5072156;28;42901;-83
2023/11/24 09:45:15;;;;;;;2.60;0.70;;;;;;;10.48;82.32;98063.09;5088479;28;41173;-83
2023/11/24 09:47:48;;;;;;;1.70;0.53;;;;;;;10.56;81.80;98055.41;5072155;28;39236;-82
2023/11/24 09:50:16;;;;;;;2.37;0.73;;;;;;;10.83;79.86;98058.59;5072021;28;40879;-82
2023/11/24 09:52:46;;;;;;;3.10;1.10;;;;;;;11.43;78.68;98062.78;5088958;28;43709;-82
2023/11/24 09:55:14;;;;;;;3.60;0.93;;;;;;;12.42;75.88;98066.25;5088151;28;42184;-82
2023/11/24 09:57:41;;;;;;;2.90;0.80;;;;;;;13.01;73.91;98064.84;5071611;28;40213;-82
2023/11/24 10:00:10;;;;;;;1.90;0.87;;;;;;;13.37;69.38;98063.53;5088249;28;42975;-83
2023/11/24 10:02:39;;;;;;;4.03;0.77;;;;;;;13.56;67.56;98068.97;5071266;28;41673;-82
2023/11/24 10:05:22;;;;;;;2.80;1.07;;;;;;;13.62;65.75;98039.16;5071241;28;43841;-82
2023/11/24 10:07:51;;;;;;;2.47;1.00;;;;;;;14.07;65.43;98065.34;5071217;28;39875;-82
2023/11/24 10:10:23;;;;;;;1.93;0.80;;;;;;;15.21;58.52;98079.66;5071459;28;42094;-82
2023/11/24 10:12:53;;;;;;;3.23;1.00;;;;;;;14.81;57.52;98055.06;5071010;28;41956;-83
2023/11/24 10:15:21;;;;;;;4.17;1.10;;;;;;;14.06;56.07;98061.84;5070989;28;42808;-84
2023/11/24 10:17:49;;;;;;;3.60;0.90;;;;;;;13.49;57.93;98044.69;5071541;28;38781;-82
2023/11/24 10:20:23;;;;;;;2.30;0.93;;;;;;;13.34;56.38;98055.84;5070779;28;40697;-84
2023/11/24 10:22:52;;;;;;;2.93;1.30;;;;;;;13.05;56.92;98045.88;5072008;28;42769;-83
2023/11/24 10:25:22;;;;;;;2.20;0.73;;;;;;;13.13;57.02;98037.22;5064991;28;41446;-83
2023/11/24 10:27:55;;;;;;;3.03;1.17;;;;;;;13.86;56.23;98026.34;5074500;28;40206;-82
2023/11/24 10:30:23;;;;;;;4.87;1.10;;;;;;;14.63;54.08;98042.41;5058059;28;41697;-84
2023/11/24 10:32:51;;;;;;;3.40;0.80;;;;;;;15.92;51.74;98031.97;5057253;28;41834;-83
2023/11/24 10:35:21;;;;;;;3.63;0.93;;;;;;;16.45;50.02;98031.16;5040854;28;42283;-84
2023/11/24 10:37:50;;;;;;;2.17;1.13;;;;;;;17.21;48.70;98015.41;5057232;28;39378;-83
2023/11/24 10:40:20;;;;;;;4.53;1.20;;;;;;;18.85;44.57;98046.13;5056892;28;41328;-83
2023/11/24 10:42:50;;;;;;;2.47;0.90;;;;;;;18.97;44.26;98041.25;5057446;28;42039;-81
2023/11/24 10:45:20;;;;;;;1.80;0.60;;;;;;;20.40;39.61;98093.09;5057455;28;41688;-84
2023/11/24 10:48:02;;;;;;;2.40;1.03;;;;;;;20.61;40.16;98067.44;5074320;28;39673;-83
2023/11/24 10:50:37;;;;;;;1.67;0.80;;;;;;;20.15;39.75;98078.09;5057532;28;41473;-83
2023/11/24 10:53:10;;;;;;;2.80;1.03;;;;;;;18.49;42.35;98034.00;5056871;28;42097;-82
2023/11/24 10:55:40;;;;;;;2.90;1.30;;;;;;;17.02;43.54;98027.16;5056752;28;43572;-83
2023/11/24 10:58:08;;;;;;;2.77;0.77;;;;;;;15.99;46.04;98006.31;5073973;28;39579;-83
2023/11/24 11:00:37;;;;;;;1.90;0.90;;;;;;;15.24;48.22;98023.38;5056984;28;40971;-83
2023/11/24 11:03:06;;;;;;;3.30;0.97;;;;;;;14.46;50.15;98003.19;5073247;28;42673;-83
2023/11/24 11:05:47;;;;;;;2.33;0.90;;;;;;;13.67;52.16;97994.38;5056924;28;41241;-82
2023/11/24 11:08:20;;;;;;;3.50;0.90;;;;;;;13.00;53.81;97978.97;5057198;28;40025;-82
2023/11/24 11:11:15;;;;;;;4.03;0.80;;;;;;;12.54;55.97;97956.34;5056905;28;41822;-82
2023/11/24 11:13:44;;;;;;;1.60;0.70;;;;;;;12.20;57.76;97926.47;5055941;28;41898;-82
2023/11/24 11:16:12;;;;;;;3.10;0.80;;;;;;;12.16;59.09;97961.34;5056468;28;42117;-82
2023/11/24 11:18:40;;;;;;;1.20;0.50;;;;;;;11.76;60.08;97942.56;5056689;28;40065;-82
2023/11/24 11:21:33;;;;;;;1.70;0.60;;;;;;;11.37;60.85;97930.72;5056336;28;42024;-83
2023/11/24 11:24:05;;;;;;;1.23;0.80;;;;;;;10.98;63.37;97909.09;5072960;28;42551;-82
2023/11/24 11:26:45;;;;;;;2.07;0.70;;;;;;;10.70;66.04;97888.38;5056620;28;42077;-82
2023/11/24 11:29:15;;;;;;;2.00;0.67;;;;;;;10.57;66.52;97901.72;5070599;28;39644;-83
2023/11/24 11:31:46;;;;;;;1.53;0.70;;;;;;;10.23;68.65;97906.13;5056613;28;43092;-81
2023/11/24 11:34:16;;;;;;;3.23;0.80;;;;;;;10.17;70.65;97911.00;5068218;28;43498;-80
2023/11/24 11:37:06;;;;;;;2.37;0.90;;;;;;;10.00;71.49;97899.06;5055150;28;40575;-81
2023/11/24 11:39:57;;;;;;;1.70;0.80;;;;;;;9.85;72.29;97887.00;5054819;28;39236;-81
2023/11/24 11:42:31;;;;;;;1.40;0.80;;;;;;;9.61;73.19;97864.09;5054924;28;40974;-82
2023/11/24 11:45:09;;;;;;;1.00;0.60;;;;;;;9.49;73.80;97846.50;5054851;28;41470;-81
2023/11/24 11:47:49;;;;;;;1.70;0.80;;;;;;;9.52;75.64;97845.44;5070665;28;43162;-81
2023/11/24 11:50:20;;;;;;;0.70;0.70;;;;;;;9.69;75.21;97848.47;5055023;28;38993;-82
2023/11/24 11:52:50;;;;;;;1.23;0.80;;;;;;;10.01;75.56;97859.25;5055699;28;40913;-81
2023/11/24 11:55:18;;;;;;;0.97;0.70;;;;;;;10.21;75.00;97849.00;5088971;28;41871;-82
2023/11/24 11:57:53;;;;;;;1.30;0.67;;;;;;;10.99;73.05;97831.31;5055383;28;42106;-82
2023/11/24 12:00:26;;;;;;;1.73;0.60;;;;;;;12.07;67.93;97853.31;5055398;28;38942;-82
2023/11/24 12:02:55;;;;;;;1.63;0.50;;;;;;;11.99;67.32;97877.84;5070666;28;42663;-81
2023/11/24 12:05:22;;;;;;;1.20;0.67;;;;;;;11.61;68.10;97877.53;5071655;28;43461;-81
2023/11/24 12:07:52;;;;;;;1.50;0.50;;;;;;;11.16;67.26;97881.13;5089137;28;41218;-82
2023/11/24 12:10:21;;;;;;;0.63;0.40;;;;;;;10.72;67.91;97860.84;5055073;28;40272;-84
2023/11/24 12:12:49;;;;;;;1.27;0.30;;;;;;;10.46;69.77;97842.66;5055129;28;43125;-83
2023/11/24 12:15:17;;;;;;;1.23;0.53;;;;;;;10.16;70.61;97830.78;5054406;28;41980;-84
2023/11/24 12:17:45;;;;;;;0.77;0.60;;;;;;;9.93;71.17;97829.06;5054867;28;41197;-81
2023/11/24 12:20:14;;;;;;;0.93;0.60;;;;;;;9.97;71.33;97830.53;5070419;28;38642;-82
2023/11/24 12:22:43;;;;;;;0.97;0.80;;;;;;;9.81;71.12;97819.44;5061755;28;42535;-82
2023/11/24 12:25:13;;;;;;;0.67;0.63;;;;;;;9.94;71.56;97814.91;5055348;28;42051;-81
2023/11/24 12:27:42;;;;;;;1.53;0.50;;;;;;;10.28;69.01;97811.34;5054918;28;42450;-84
2023/11/24 12:30:12;;;;;;;2.50;0.77;;;;;;;10.11;69.40;97814.47;5054792;28;39826;-85
2023/11/24 12:32:41;;;;;;;0.43;0.40;;;;;;;10.11;69.54;97803.88;5071929;28;42522;-84
2023/11/24 12:35:09;;;;;;;1.40;0.50;;;;;;;10.61;67.47;97813.19;5054763;28;42154;-84
2023/11/24 12:37:39;;;;;;;1.53;0.50;;;;;;;10.42;65.86;97816.41;5055194;28;42496;-82
2023/11/24 12:40:09;;;;;;;1.40;0.50;;;;;;;10.31;67.53;97813.78;5054393;28;39240;-83
2023/11/24 12:42:38;;;;;;;0.50;0.50;;;;;;;10.05;68.43;97801.69;5054457;28;40534;-84
2023/11/24 12:45:08;;;;;;;0.43;0.30;;;;;;;9.93;68.44;97823.78;5054899;28;43116;-84
2023/11/24 12:47:36;;;;;;;0.93;0.60;;;;;;;9.64;71.08;97818.09;5054481;28;42216;-83
2023/11/24 12:50:09;;;;;;;1.10;0.50;;;;;;;9.75;73.10;97802.25;5071084;28;39237;-82
2023/11/24 12:52:38;;;;;;;0.63;0.40;;;;;;;10.27;71.51;97796.44;5054579;28;40887;-83
2023/11/24 12:55:07;;;;;;;0.40;0.40;;;;;;;10.37;70.74;97791.28;5054226;28;43074;-82
2023/11/24 12:57:35;;;;;;;0.83;0.60;;;;;;;10.46;70.95;97779.13;5088349;28;40915;-82
2023/11/24 13:00:09;;;;;;;1.33;0.60;;;;;;;10.62;69.26;97792.84;5072197;28;40755;-85
2023/11/24 13:02:37;;;;;;;1.50;0.60;;;;;;;10.61;68.66;97794.66;5054560;28;40772;-86
2023/11/24 13:05:07;;;;;;;1.23;0.60;;;;;;;10.58;66.46;97791.38;5070549;28;42882;-87
2023/11/24 13:07:35;;;;;;;0.73;0.50;;;;;;;10.73;65.63;97806.06;5054330;28;41629;-81
2023/11/24 13:10:05;;;;;;;1.50;0.50;;;;;;;10.58;65.28;97801.97;5070964;28;38846;-81
2023/11/24 13:12:33;;;;;;;0.67;0.60;;;;;;;10.54;66.20;97776.72;5054041;28;42249;-83
2023/11/24 13:15:01;;;;;;;1.67;0.73;;;;;;;10.58;65.29;97783.44;5053265;28;42846;-84
2023/11/24 13:17:32;;;;;;;1.37;0.60;;;;;;;10.49;64.95;97770.97;5071060;28;42643;-83
2023/11/24 13:20:00;;;;;;;1.53;0.70;;;;;;;10.33;64.40;97774.81;5054232;28;39127;-81
2023/11/24 13:22:28;;;;;;;0.93;0.53;;;;;;;10.29;65.92;97760.13;5053770;28;40856;-84
2023/11/24 13:24:58;;;;;;;0.97;0.60;;;;;;;10.17;65.72;97763.69;5053402;28;41839;-82
2023/11/24 13:27:26;;;;;;;1.80;0.60;;;;;;;9.99;64.78;97758.06;5053233;28;41077;-82
2023/11/24 13:29:53;;;;;;;0.83;0.60;;;;;;;9.70;65.38;97755.00;5053836;28;39371;-82
2023/11/24 13:32:21;;;;;;;1.40;0.60;;;;;;;9.52;65.72;97743.19;5054485;28;40606;-82
2023/11/24 13:34:50;;;;;;;0.50;0.50;;;;;;;9.17;66.41;97745.00;5070090;28;42009;-83
2023/11/24 13:37:18;;;;;;;2.30;0.60;;;;;;;9.04;66.93;97738.94;5070657;28;43303;-82
2023/11/24 13:39:46;;;;;;;3.83;0.87;;;;;;;8.96;68.11;97737.72;5070410;28;39306;-82
2023/11/24 13:42:14;;;;;;;0.80;0.67;;;;;;;8.92;68.01;97730.97;5054088;28;42260;-82
2023/11/24 13:44:41;;;;;;;1.47;0.70;;;;;;;8.94;68.84;97707.94;5053898;28;41800;-82
2023/11/24 13:47:12;;;;;;;2.33;0.80;;;;;;;9.29;68.50;97744.06;5054050;28;41398;-84
2023/11/24 13:49:40;;;;;;;1.60;0.70;;;;;;;9.20;67.17;97736.84;5054148;28;39168;-83
2023/11/24 13:52:10;;;;;;;1.00;0.67;;;;;;;9.18;68.00;97736.09;5053915;28;40968;-84
2023/11/24 13:54:38;;;;;;;3.60;0.70;;;;;;;9.09;67.65;97739.44;5066825;28;43138;-80
2023/11/24 13:57:06;;;;;;;1.37;0.80;;;;;;;9.07;66.83;97738.72;5053674;28;44011;-83
2023/11/24 13:59:33;;;;;;;1.97;0.80;;;;;;;8.98;68.42;97745.53;5053830;28;38942;-83
2023/11/24 14:02:01;;;;;;;1.47;0.60;;;;;;;8.68;70.21;97711.66;5056880;28;40722;-82
2023/11/24 14:04:33;;;;;;;2.27;0.70;;;;;;;8.60;71.85;97708.72;5073504;28;42705;-82
2023/11/24 14:07:01;;;;;;;1.43;0.63;;;;;;;8.57;73.47;97730.06;5057330;28;42880;-83
2023/11/24 14:09:31;;;;;;;1.50;0.73;;;;;;;8.39;74.88;97736.69;5073470;28;41169;-82
2023/11/24 14:12:00;;;;;;;0.93;0.60;;;;;;;8.11;75.65;97735.94;5074910;28;41433;-81
2023/11/24 14:14:28;;;;;;;1.43;0.73;;;;;;;7.86;78.39;97733.34;5055584;28;43357;-82
2023/11/24 14:16:56;;;;;;;1.07;0.97;;;;;;;7.76;79.69;97742.84;5073426;28;42671;-81
2023/11/24 14:19:24;;;;;;;2.10;0.93;;;;;;;7.66;79.98;97736.53;5072695;28;40272;-82
2023/11/24 14:21:55;;;;;;;1.23;0.60;;;;;;;7.50;81.12;97728.81;5054693;28;41778;-82
2023/11/24 14:24:24;;;;;;;2.20;0.80;;;;;;;7.38;81.58;97714.69;5071914;28;42977;-82
2023/11/24 14:26:54;;;;;;;1.03;0.60;;;;;;;7.39;81.89;97728.69;5056802;28;42739;-82
2023/11/24 14:29:21;;;;;;;1.97;0.73;;;;;;;7.18;82.67;97709.91;5057257;28;39950;-83
2023/11/24 14:31:49;;;;;;;3.03;0.80;;;;;;;7.30;82.89;97745.09;5075082;28;41773;-81
2023/11/24 14:34:17;;;;;;;1.20;1.00;;;;;;;7.09;82.87;97736.84;5057072;28;41956;-82
2023/11/24 14:36:44;;;;;;;3.53;1.03;;;;;;;7.03;83.36;97739.91;5056794;28;41690;-81
2023/11/24 14:39:24;;;;;;;2.73;0.83;;;;;;;6.95;83.37;97757.97;5056777;28;39360;-81
2023/11/24 14:41:54;;;;;;;1.03;0.80;;;;;;;6.92;84.36;97771.34;5056314;28;41806;-81
